Time;durP1;ratioP1;P1;durP2;ratioP2;P2;SDS_P1;SDS_P2;PMS_P1;PMS_P2;Temp;Humidity;BMP_temperature;BMP_pressure;BME280_temperature;BME280_humidity;BME280_pressure;Samples;Min_cycle;Max_cycle;Signal;HPM_P1;HPM_P2
2022/05/03 00:01:49;;;;;;;1.33;0.80;;;;;;;7.76;59.22;99586.45;1757109;80;21190;-49
2022/05/03 00:04:35;;;;;;;1.07;0.80;;;;;;;7.76;59.06;99585.12;1756607;80;21377;-47
2022/05/03 00:07:29;;;;;;;2.33;0.90;;;;;;;7.78;59.01;99580.58;1751812;80;21041;-48
2022/05/03 00:10:15;;;;;;;1.92;1.07;;;;;;;7.80;59.03;99581.40;1751891;80;21051;-48
2022/05/03 00:12:49;;;;;;;2.63;0.83;;;;;;;7.80;59.12;99580.94;1768197;80;21041;-50
2022/05/03 00:15:18;;;;;;;2.55;0.95;;;;;;;7.80;59.22;99575.58;1743867;81;21162;-49
2022/05/03 00:17:45;;;;;;;1.57;0.77;;;;;;;7.80;59.24;99579.59;1755020;79;21080;-46
2022/05/03 00:20:11;;;;;;;1.60;0.73;;;;;;;7.82;59.30;99570.16;1757888;79;22061;-47
2022/05/03 00:22:38;;;;;;;1.10;0.70;;;;;;;7.83;59.37;99574.09;1762171;79;21400;-47
2022/05/03 00:25:05;;;;;;;1.93;0.90;;;;;;;7.84;59.42;99569.61;1758210;79;21123;-48
2022/05/03 00:27:32;;;;;;;1.07;0.70;;;;;;;7.86;59.49;99571.77;1759100;79;22377;-48
2022/05/03 00:29:59;;;;;;;1.20;0.80;;;;;;;7.86;59.62;99567.28;1762920;79;21131;-48
2022/05/03 00:32:28;;;;;;;3.53;0.83;;;;;;;7.88;59.71;99564.08;1758389;80;21033;-46
2022/05/03 00:34:57;;;;;;;3.20;0.80;;;;;;;7.88;59.77;99566.76;1759972;79;21045;-47
2022/05/03 00:37:24;;;;;;;5.00;0.90;;;;;;;7.90;59.75;99568.05;1762757;79;21033;-49
2022/05/03 00:39:51;;;;;;;1.43;0.77;;;;;;;7.89;59.80;99556.45;1760388;79;21147;-47
2022/05/03 00:42:26;;;;;;;1.93;0.70;;;;;;;7.91;59.88;99557.23;1765590;79;21065;-48
2022/05/03 00:45:44;;;;;;;1.90;0.80;;;;;;;7.92;60.01;99562.12;1761050;79;21100;-47
2022/05/03 00:48:31;;;;;;;1.20;0.70;;;;;;;7.93;60.09;99558.52;1754586;79;21093;-47
2022/05/03 00:51:06;;;;;;;2.60;0.70;;;;;;;7.89;60.24;99556.91;1759581;79;21135;-46
2022/05/03 00:54:06;;;;;;;1.30;0.70;;;;;;;7.83;60.41;99555.80;1746866;79;21122;-48
2022/05/03 00:56:45;;;;;;;1.03;0.70;;;;;;;7.82;60.60;99550.06;1757928;79;20959;-46
2022/05/03 00:59:37;;;;;;;6.70;0.80;;;;;;;7.83;60.85;99549.97;1756728;79;21017;-48
2022/05/03 01:02:05;;;;;;;2.60;0.70;;;;;;;7.87;61.03;99545.38;1777273;79;21053;-46
2022/05/03 01:05:01;;;;;;;2.40;0.70;;;;;;;7.89;61.13;99544.39;1753103;80;21052;-47
2022/05/03 01:07:50;;;;;;;2.30;0.80;;;;;;;7.92;61.21;99552.28;1761550;79;21365;-46
2022/05/03 01:10:25;;;;;;;2.17;0.73;;;;;;;7.94;61.29;99545.06;1787910;79;21515;-53
2022/05/03 01:13:30;;;;;;;2.07;0.70;;;;;;;7.96;61.47;99546.34;1784838;79;21539;-47
2022/05/03 01:16:05;;;;;;;2.67;0.68;;;;;;;7.98;61.61;99541.34;1784519;79;28200;-47
2022/05/03 01:18:54;;;;;;;1.53;0.60;;;;;;;8.07;61.92;99546.79;1791635;78;20887;-46
2022/05/03 01:21:52;;;;;;;1.67;0.50;;;;;;;8.13;61.93;99543.84;1760723;79;21521;-46
2022/05/03 01:24:27;;;;;;;3.80;0.60;;;;;;;8.21;61.86;99545.73;1764364;79;21053;-49
2022/05/03 01:27:38;;;;;;;5.60;0.60;;;;;;;8.31;62.02;99543.11;1759416;80;20976;-50
2022/05/03 01:30:05;;;;;;;1.53;0.60;;;;;;;8.41;61.85;99537.36;1759768;80;21064;-49
2022/05/03 01:32:32;;;;;;;0.80;0.60;;;;;;;8.53;61.81;99536.34;1760635;80;21048;-49
2022/05/03 01:34:58;;;;;;;2.00;0.60;;;;;;;8.60;61.57;99535.13;1761289;80;21538;-49
2022/05/03 01:37:40;;;;;;;0.80;0.57;;;;;;;8.68;61.39;99534.33;1769452;79;21052;-50
2022/05/03 01:40:11;;;;;;;2.30;0.60;;;;;;;8.75;61.27;99533.61;1740955;80;21033;-50
2022/05/03 01:42:58;;;;;;;0.93;0.70;;;;;;;8.82;61.08;99534.20;1798632;78;21768;-50
2022/05/03 01:45:35;;;;;;;3.13;0.70;;;;;;;8.85;61.36;99531.36;1790966;78;21053;-49
2022/05/03 01:48:20;;;;;;;1.40;0.70;;;;;;;8.89;61.30;99535.20;1758660;79;21221;-49
2022/05/03 01:50:58;;;;;;;;;;;;;;;8.93;61.24;99534.61;1788166;79;21122;-49
2022/05/03 01:53:40;;;;;;;1.00;0.53;;;;;;;8.95;61.33;99529.55;1786091;79;20258;-50
2022/05/03 01:56:58;;;;;;;1.10;0.60;;;;;;;8.99;61.10;99528.95;1786246;79;21293;-49
2022/05/03 01:59:42;;;;;;;1.60;0.70;;;;;;;9.02;61.06;99527.45;1763214;79;21042;-50
2022/05/03 02:02:32;;;;;;;5.27;0.70;;;;;;;9.01;61.06;99523.92;1755515;80;22428;-50
2022/05/03 02:05:06;;;;;;;3.33;0.70;;;;;;;9.02;61.04;99519.39;1773760;79;21068;-49
2022/05/03 02:07:54;;;;;;;2.80;0.80;;;;;;;9.02;60.84;99518.92;1783703;78;21478;-49
2022/05/03 02:10:44;;;;;;;3.67;0.70;;;;;;;9.04;60.95;99522.42;1759309;79;21024;-49
2022/05/03 02:16:55;;;;;;;4.50;0.70;;;;;;;8.99;60.57;99515.53;1735567;81;21196;-49
2022/05/03 02:19:53;;;;;;;2.50;0.70;;;;;;;8.93;60.75;99517.16;1786998;78;21056;-49
2022/05/03 02:22:55;;;;;;;1.30;0.50;;;;;;;8.91;60.90;99512.32;1791185;78;21091;-50
2022/05/03 02:25:57;;;;;;;2.27;0.60;;;;;;;8.93;61.31;99515.81;1787398;78;21022;-49
2022/05/03 02:28:52;;;;;;;1.47;0.60;;;;;;;8.96;61.12;99511.16;1791748;78;21470;-50
2022/05/03 02:31:23;;;;;;;4.00;0.87;;;;;;;8.99;60.80;99510.16;1759421;80;21578;-50
2022/05/03 02:33:54;;;;;;;1.23;0.70;;;;;;;9.02;61.49;99517.58;1753299;80;21656;-50
2022/05/03 02:36:24;;;;;;;1.20;0.80;;;;;;;9.04;61.84;99511.68;1756988;79;22020;-50
2022/05/03 02:39:04;;;;;;;2.30;0.70;;;;;;;9.06;61.86;99511.15;1788606;79;21566;-50
2022/05/03 02:41:39;;;;;;;0.80;0.50;;;;;;;9.10;61.79;99515.92;1757074;79;21481;-50
2022/05/03 02:44:05;;;;;;;1.93;0.60;;;;;;;9.09;61.45;99520.42;1757777;81;21095;-50
2022/05/03 02:47:03;;;;;;;3.00;0.60;;;;;;;9.08;61.48;99515.98;1760942;79;21017;-50
2022/05/03 02:50:11;;;;;;;1.57;0.70;;;;;;;9.09;61.22;99517.73;1760196;80;21074;-51
2022/05/03 02:53:07;;;;;;;2.70;0.70;;;;;;;9.10;61.45;99513.23;1747362;80;21415;-50
2022/05/03 02:56:08;;;;;;;3.42;0.53;;;;;;;9.15;62.25;99517.03;1759873;79;21045;-50
2022/05/03 02:59:07;;;;;;;0.97;0.40;;;;;;;9.19;62.79;99515.94;1787373;79;21849;-51
2022/05/03 03:02:12;;;;;;;1.93;0.70;;;;;;;9.24;62.84;99520.17;1758280;79;21029;-50
2022/05/03 03:04:46;;;;;;;0.80;0.50;;;;;;;9.31;63.02;99516.25;1736180;81;21085;-50
2022/05/03 03:07:18;;;;;;;1.25;0.50;;;;;;;9.38;62.55;99513.67;1752606;80;27387;-51
2022/05/03 03:10:05;;;;;;;2.70;0.50;;;;;;;9.46;62.31;99518.68;1754905;80;21012;-51
2022/05/03 03:12:46;;;;;;;1.83;0.80;;;;;;;9.52;62.01;99511.70;1754071;80;21133;-50
2022/05/03 03:15:16;;;;;;;0.80;0.50;;;;;;;9.60;61.83;99514.89;1752991;80;21040;-51
2022/05/03 03:17:46;;;;;;;7.10;0.60;;;;;;;9.67;61.38;99516.80;1751584;80;20997;-50
2022/05/03 03:20:14;;;;;;;1.00;0.60;;;;;;;9.72;61.17;99516.96;1758055;79;21033;-50
2022/05/03 03:22:46;;;;;;;2.10;0.60;;;;;;;9.77;61.06;99515.41;1753084;80;21085;-50
2022/05/03 03:25:18;;;;;;;1.70;0.70;;;;;;;9.82;60.88;99518.27;1754201;80;21553;-51
2022/05/03 03:27:48;;;;;;;3.13;0.60;;;;;;;9.85;60.82;99514.09;1753009;80;21068;-50
2022/05/03 03:30:16;;;;;;;1.00;0.60;;;;;;;9.90;60.95;99517.89;1755453;80;21486;-51
2022/05/03 03:32:52;;;;;;;1.20;0.60;;;;;;;9.90;61.08;99516.54;1755476;80;21128;-52
2022/05/03 03:35:19;;;;;;;1.20;0.70;;;;;;;9.91;61.73;99520.97;1780375;79;21530;-51
2022/05/03 03:37:50;;;;;;;1.97;0.60;;;;;;;9.92;62.36;99521.84;1761146;80;21645;-51
2022/05/03 03:40:18;;;;;;;2.97;0.60;;;;;;;9.89;62.96;99534.95;1763236;80;21559;-51
2022/05/03 03:42:45;;;;;;;1.50;0.60;;;;;;;9.86;62.16;99540.03;1750961;80;21388;-51
2022/05/03 03:45:14;;;;;;;1.53;0.67;;;;;;;9.83;60.32;99536.14;1750147;80;21085;-50
2022/05/03 03:47:43;;;;;;;4.33;0.70;;;;;;;9.84;61.08;99532.98;1780967;79;20906;-51
2022/05/03 03:50:09;;;;;;;1.73;0.60;;;;;;;9.88;61.23;99538.59;1775292;79;21470;-50
2022/05/03 03:52:39;;;;;;;4.83;0.70;;;;;;;9.92;61.29;99534.81;1749797;80;21472;-51
2022/05/03 03:55:07;;;;;;;1.60;0.67;;;;;;;9.96;60.75;99518.05;1752679;80;21536;-50
2022/05/03 03:57:36;;;;;;;1.63;0.40;;;;;;;10.01;59.73;99506.14;1725609;80;21002;-51
2022/05/03 04:00:08;;;;;;;3.07;0.60;;;;;;;10.12;58.05;99507.79;1751428;80;21050;-51
2022/05/03 04:02:43;;;;;;;0.40;0.40;;;;;;;10.40;57.51;99498.36;1751624;80;21219;-51
2022/05/03 04:05:19;;;;;;;2.20;0.40;;;;;;;10.71;57.09;99510.64;1725866;81;20914;-51
2022/05/03 04:07:46;;;;;;;0.27;0.20;;;;;;;10.97;56.08;99510.09;1723992;81;20937;-51
2022/05/03 04:10:13;;;;;;;1.53;0.63;;;;;;;11.21;55.58;99513.79;1721375;81;21089;-52
2022/05/03 04:12:39;;;;;;;0.50;0.40;;;;;;;11.38;55.15;99514.61;1720549;81;21066;-50
2022/05/03 04:15:07;;;;;;;0.50;0.40;;;;;;;11.53;54.68;99508.83;1717891;81;21697;-51
2022/05/03 04:17:34;;;;;;;0.53;0.33;;;;;;;11.67;54.54;99510.74;1723214;81;20945;-52
2022/05/03 04:20:00;;;;;;;0.63;0.40;;;;;;;11.78;54.52;99513.74;1722589;81;21379;-50
2022/05/03 04:22:34;;;;;;;1.42;0.40;;;;;;;11.88;55.60;99516.31;1718711;81;22524;-50
2022/05/03 04:25:01;;;;;;;;;;;;;;;11.96;56.02;99525.31;1725305;81;21128;-51
2022/05/03 04:27:28;;;;;;;0.80;0.33;;;;;;;12.03;56.43;99521.30;1722344;81;21172;-50
2022/05/03 04:29:55;;;;;;;2.07;0.80;;;;;;;12.07;56.38;99513.43;1722091;81;21097;-50
2022/05/03 04:32:22;;;;;;;0.40;0.30;;;;;;;12.13;55.85;99516.63;1722292;81;21077;-50
2022/05/03 04:34:48;;;;;;;0.40;0.40;;;;;;;12.19;54.58;99507.30;1719232;81;21111;-50
2022/05/03 04:37:15;;;;;;;0.37;0.25;;;;;;;12.26;53.33;99507.32;1720250;81;21042;-50
2022/05/03 04:39:42;;;;;;;2.62;0.30;;;;;;;12.36;52.43;99502.25;1723395;81;21543;-51
2022/05/03 04:42:10;;;;;;;0.70;0.30;;;;;;;12.46;51.85;99495.35;1720120;81;21052;-50
2022/05/03 04:44:37;;;;;;;0.85;0.37;;;;;;;12.56;51.26;99506.00;1721760;81;21069;-50
2022/05/03 04:47:04;;;;;;;3.45;0.30;;;;;;;12.67;50.85;99505.36;1720380;81;21048;-51
2022/05/03 04:49:31;;;;;;;0.57;0.40;;;;;;;12.78;50.44;99498.80;1721708;81;22021;-51
2022/05/03 04:51:57;;;;;;;0.50;0.40;;;;;;;12.89;50.34;99512.05;1722619;81;21134;-51
2022/05/03 04:54:24;;;;;;;1.40;0.40;;;;;;;12.99;50.36;99504.73;1722429;81;21553;-51
2022/05/03 04:56:55;;;;;;;1.02;0.37;;;;;;;13.07;50.11;99504.64;1723164;81;21536;-50
2022/05/03 04:59:22;;;;;;;0.40;0.30;;;;;;;13.15;49.69;99496.95;1719291;81;21538;-51
2022/05/03 05:01:50;;;;;;;0.45;0.30;;;;;;;13.25;49.09;99493.19;1720242;81;22271;-51
2022/05/03 05:04:16;;;;;;;0.50;0.30;;;;;;;13.35;48.14;99494.35;1734404;80;21140;-51
2022/05/03 05:06:42;;;;;;;0.37;0.30;;;;;;;13.45;47.75;99494.12;1775161;79;21622;-51
2022/05/03 05:09:09;;;;;;;0.90;0.40;;;;;;;13.55;47.92;99495.28;1751054;80;21079;-51
2022/05/03 05:11:36;;;;;;;0.75;0.30;;;;;;;13.64;47.73;99489.27;1756553;80;21029;-52
2022/05/03 05:14:02;;;;;;;1.82;0.30;;;;;;;13.75;47.70;99496.70;1748402;80;21041;-50
2022/05/03 05:16:29;;;;;;;3.47;0.30;;;;;;;13.86;47.42;99497.36;1747665;80;21957;-51
2022/05/03 05:18:55;;;;;;;1.40;0.40;;;;;;;13.95;47.27;99498.11;1744123;81;21069;-51
2022/05/03 05:21:22;;;;;;;3.90;0.30;;;;;;;14.03;46.94;99498.47;1750744;80;21104;-51
2022/05/03 05:23:49;;;;;;;0.62;0.30;;;;;;;14.10;46.67;99490.31;1748438;80;21579;-51
2022/05/03 05:26:15;;;;;;;5.28;0.40;;;;;;;14.19;46.50;99499.18;1750865;80;20878;-51
2022/05/03 05:28:42;;;;;;;2.80;0.40;;;;;;;14.26;46.29;99493.73;1749890;80;21070;-51
2022/05/03 05:31:08;;;;;;;0.95;0.40;;;;;;;14.31;45.99;99499.69;1755160;80;21041;-51
2022/05/03 05:33:36;;;;;;;0.90;0.30;;;;;;;14.37;45.97;99497.08;1747647;80;21025;-51
2022/05/03 05:36:03;;;;;;;0.60;0.40;;;;;;;14.42;45.63;99498.13;1750552;80;21113;-50
2022/05/03 05:38:30;;;;;;;1.32;0.40;;;;;;;14.46;45.77;99490.20;1751900;80;21128;-53
2022/05/03 05:40:57;;;;;;;1.45;0.30;;;;;;;14.48;46.03;99490.45;1752751;80;21138;-49
2022/05/03 05:43:23;;;;;;;1.32;0.40;;;;;;;14.52;45.98;99493.34;1745514;80;21045;-49
2022/05/03 05:45:50;;;;;;;0.80;0.40;;;;;;;14.55;46.29;99492.25;1776199;79;22108;-47
2022/05/03 05:48:16;;;;;;;0.62;0.40;;;;;;;14.58;46.22;99501.53;1775542;79;21024;-53
2022/05/03 05:50:43;;;;;;;2.62;0.40;;;;;;;14.59;46.04;99497.85;1784126;78;21155;-49
2022/05/03 05:55:54;;;;;;;;;;;;;;;14.58;46.14;99498.34;1762020;80;21025;-51
2022/05/03 05:58:21;;;;;;;0.75;0.50;;;;;;;14.57;46.19;99493.89;1759778;80;20432;-52
2022/05/03 06:00:47;;;;;;;2.15;0.45;;;;;;;14.56;46.59;99489.92;1759120;80;21551;-50
2022/05/03 06:03:15;;;;;;;1.65;0.50;;;;;;;14.54;46.49;99494.61;1760156;80;21092;-52
2022/05/03 06:05:41;;;;;;;3.70;0.50;;;;;;;14.54;46.23;99494.12;1758937;80;21517;-52
2022/05/03 06:08:09;;;;;;;0.70;0.50;;;;;;;14.52;46.04;99485.70;1755691;80;21330;-53
2022/05/03 06:10:36;;;;;;;1.05;0.42;;;;;;;14.52;45.75;99482.52;1743179;80;21038;-49
2022/05/03 06:13:03;;;;;;;0.72;0.47;;;;;;;14.53;45.13;99471.20;1754151;80;20914;-52
2022/05/03 06:15:30;;;;;;;0.90;0.50;;;;;;;14.56;45.67;99479.09;1749508;80;21621;-50
2022/05/03 06:17:57;;;;;;;1.40;0.50;;;;;;;14.61;45.52;99475.11;1748192;81;21472;-53
2022/05/03 06:20:23;;;;;;;3.58;0.50;;;;;;;14.67;45.51;99473.81;1748944;80;21085;-51
2022/05/03 06:22:50;;;;;;;1.07;0.40;;;;;;;14.77;45.26;99470.84;1749397;80;21402;-49
2022/05/03 06:25:16;;;;;;;0.70;0.35;;;;;;;14.89;45.20;99471.33;1750104;80;21044;-47
2022/05/03 06:27:43;;;;;;;1.75;0.70;;;;;;;15.03;44.79;99477.14;1749274;80;21080;-48
2022/05/03 06:30:10;;;;;;;1.23;0.60;;;;;;;15.15;45.24;99465.41;1746759;80;21479;-50
2022/05/03 06:32:37;;;;;;;1.65;0.60;;;;;;;15.28;45.05;99470.84;1750175;80;21654;-49
2022/05/03 06:35:05;;;;;;;0.90;0.60;;;;;;;15.37;45.41;99470.18;1747874;80;21463;-47
2022/05/03 06:37:38;;;;;;;0.80;0.60;;;;;;;15.45;45.49;99470.48;1778279;79;21024;-50
2022/05/03 06:40:09;;;;;;;2.58;0.60;;;;;;;15.52;45.71;99475.84;1775167;79;21073;-51
2022/05/03 06:42:38;;;;;;;2.77;0.55;;;;;;;15.58;45.44;99473.19;1748838;80;21789;-49
2022/05/03 06:45:06;;;;;;;1.10;0.57;;;;;;;15.61;45.27;99475.70;1748543;80;21002;-47
2022/05/03 06:47:33;;;;;;;1.37;0.50;;;;;;;15.65;45.43;99471.27;1752187;80;20894;-52
2022/05/03 06:49:59;;;;;;;1.40;0.60;;;;;;;15.69;45.21;99478.71;1751052;80;21082;-48
2022/05/03 06:52:25;;;;;;;3.42;0.57;;;;;;;15.71;45.70;99483.05;1751885;80;21100;-49
2022/05/03 06:54:52;;;;;;;0.90;0.60;;;;;;;15.75;46.20;99485.03;1750565;80;21488;-48
2022/05/03 06:57:19;;;;;;;2.72;0.60;;;;;;;15.75;46.60;99484.55;1749715;80;21062;-49
2022/05/03 06:59:47;;;;;;;1.40;0.70;;;;;;;15.78;46.72;99487.05;1748718;80;22288;-47
2022/05/03 07:02:13;;;;;;;2.25;0.57;;;;;;;15.79;46.93;99480.64;1745881;80;21029;-50
2022/05/03 07:04:43;;;;;;;5.17;0.62;;;;;;;15.84;46.62;99480.28;1781951;79;21283;-50
2022/05/03 07:07:08;;;;;;;2.15;0.60;;;;;;;15.87;46.51;99478.72;1750247;80;21353;-49
2022/05/03 07:09:34;;;;;;;0.62;0.50;;;;;;;15.92;46.25;99477.87;1751498;81;21029;-49
2022/05/03 07:12:01;;;;;;;1.15;0.60;;;;;;;15.99;45.93;99479.66;1750895;80;21103;-50
2022/05/03 07:14:28;;;;;;;2.17;0.47;;;;;;;16.06;45.72;99476.86;1779803;80;21105;-49
2022/05/03 07:16:54;;;;;;;3.37;0.50;;;;;;;16.20;44.84;99480.26;1785894;79;21480;-49
2022/05/03 07:24:40;;;;;;;0.50;0.40;;;;;;;16.37;44.35;99476.26;1698678;81;20986;-50
2022/05/03 07:27:07;;;;;;;0.90;0.40;;;;;;;16.47;43.34;99478.66;1754086;81;20946;-48
2022/05/03 07:29:33;;;;;;;0.70;0.50;;;;;;;16.56;43.21;99473.88;1756456;80;20993;-49
2022/05/03 07:32:00;;;;;;;1.02;0.40;;;;;;;16.70;43.28;99470.59;1752305;80;21136;-48
2022/05/03 07:34:26;;;;;;;0.50;0.40;;;;;;;16.81;43.19;99468.78;1750938;80;21439;-52
2022/05/03 07:36:52;;;;;;;0.82;0.42;;;;;;;17.09;42.79;99460.69;1785553;79;21084;-52
2022/05/03 07:39:19;;;;;;;0.70;0.33;;;;;;;17.09;42.79;99460.69;1750884;80;21040;-50
2022/05/03 07:41:46;;;;;;;0.72;0.40;;;;;;;17.23;42.63;99461.80;1751208;80;21016;-47
2022/05/03 07:44:12;;;;;;;2.33;0.40;;;;;;;17.37;41.79;99460.19;1748980;81;21706;-48
2022/05/03 07:46:38;;;;;;;1.52;0.30;;;;;;;17.50;40.49;99451.05;1749195;81;21004;-50
2022/05/03 07:49:05;;;;;;;0.75;0.30;;;;;;;17.63;40.80;99455.88;1749128;81;21479;-53
2022/05/03 07:51:31;;;;;;;0.40;0.30;;;;;;;17.76;39.30;99457.48;1753354;80;20950;-52
2022/05/03 07:53:58;;;;;;;0.50;0.20;;;;;;;17.86;38.56;99456.23;1754592;80;21443;-55
2022/05/03 07:56:26;;;;;;;0.50;0.20;;;;;;;18.01;38.81;99454.95;1753754;81;21606;-54
2022/05/03 07:59:36;;;;;;;0.57;0.27;;;;;;;18.26;37.25;99446.94;1792532;78;24608;-51
2022/05/03 08:02:03;;;;;;;1.12;0.35;;;;;;;18.39;37.10;99438.08;1771766;80;20970;-53
2022/05/03 08:04:30;;;;;;;1.80;0.40;;;;;;;18.56;36.84;99432.54;1774597;80;21114;-52
2022/05/03 08:06:56;;;;;;;0.40;0.30;;;;;;;18.71;36.38;99438.09;1768134;80;22263;-51
2022/05/03 08:09:23;;;;;;;0.50;0.30;;;;;;;18.82;36.77;99433.91;1770066;80;21001;-53
2022/05/03 08:11:49;;;;;;;0.57;0.30;;;;;;;18.96;35.92;99430.49;1771894;80;21474;-52
2022/05/03 08:14:16;;;;;;;8.78;0.50;;;;;;;19.06;36.12;99438.20;1775314;80;20996;-49
2022/05/03 08:16:43;;;;;;;0.53;0.30;;;;;;;19.15;36.16;99425.12;1775399;80;21133;-52
2022/05/03 08:19:10;;;;;;;0.28;0.20;;;;;;;19.22;35.75;99424.97;1746325;80;21665;-50
2022/05/03 08:21:37;;;;;;;0.40;0.20;;;;;;;19.31;35.27;99429.57;1774690;80;21088;-50
2022/05/03 08:24:04;;;;;;;2.15;0.30;;;;;;;19.36;33.67;99421.86;1776173;80;21074;-50
2022/05/03 08:26:33;;;;;;;0.50;0.20;;;;;;;19.41;33.56;99422.30;1778109;80;20985;-54
2022/05/03 08:29:00;;;;;;;0.40;0.30;;;;;;;19.46;33.50;99422.77;1776774;80;21130;-53
2022/05/03 08:31:26;;;;;;;1.50;0.20;;;;;;;19.52;32.98;99420.88;1771660;80;20954;-50
2022/05/03 08:33:53;;;;;;;1.10;0.23;;;;;;;19.60;32.27;99418.31;1769561;80;21053;-53
2022/05/03 08:36:19;;;;;;;1.10;0.30;;;;;;;19.68;32.32;99408.55;1702423;83;21517;-52
2022/05/03 08:44:15;;;;;;;;;;;;;;;19.71;32.41;99401.45;1716191;83;21101;-50
2022/05/03 08:46:42;;;;;;;0.30;0.30;;;;;;;19.77;32.58;99403.12;1708687;83;20482;-53
2022/05/03 08:49:13;;;;;;;0.50;0.30;;;;;;;19.83;32.34;99403.91;1698753;83;21061;-52
2022/05/03 08:51:40;;;;;;;0.30;0.20;;;;;;;19.90;32.31;99389.22;1699244;83;21057;-54
2022/05/03 08:54:07;;;;;;;0.62;0.20;;;;;;;19.96;31.71;99398.20;1715610;83;21496;-48
2022/05/03 08:56:34;;;;;;;1.42;0.30;;;;;;;19.98;31.21;99392.09;1712839;83;21046;-50
2022/05/03 08:59:00;;;;;;;0.40;0.30;;;;;;;19.98;31.07;99383.41;1686697;81;21098;-50
2022/05/03 09:01:27;;;;;;;1.65;0.30;;;;;;;19.98;31.37;99390.73;1698077;82;21299;-53
2022/05/03 09:03:53;;;;;;;1.12;0.30;;;;;;;19.97;31.20;99381.67;1695997;82;21078;-54
2022/05/03 09:06:20;;;;;;;0.72;0.30;;;;;;;19.96;31.51;99387.27;1696070;82;21772;-52
2022/05/03 09:08:51;;;;;;;7.03;0.40;;;;;;;19.95;31.46;99382.81;1701649;82;21072;-54
2022/05/03 09:11:18;;;;;;;0.30;0.20;;;;;;;19.91;31.67;99375.89;1698265;82;21044;-52
2022/05/03 09:13:45;;;;;;;1.32;0.20;;;;;;;19.92;31.46;99368.92;1701342;82;21322;-52
2022/05/03 09:16:16;;;;;;;0.50;0.30;;;;;;;19.98;31.63;99362.05;1735988;80;21637;-53
2022/05/03 09:18:44;;;;;;;9.55;0.55;;;;;;;20.06;31.36;99358.09;1724647;80;21598;-53
2022/05/03 09:24:12;;;;;;;0.60;0.30;;;;;;;20.23;31.54;99360.11;1731385;80;21051;-54
2022/05/03 09:26:40;;;;;;;3.10;0.30;;;;;;;20.30;31.50;99353.05;1734763;80;20999;-51
2022/05/03 09:29:14;;;;;;;0.72;0.40;;;;;;;20.32;31.12;99353.78;1742077;80;21058;-53
2022/05/03 09:31:47;;;;;;;;;;;;;;;20.33;30.94;99335.51;1739376;80;22202;-52
2022/05/03 09:34:26;;;;;;;0.57;0.30;;;;;;;20.38;30.63;99334.09;1731927;80;20632;-54
2022/05/03 09:36:58;;;;;;;0.65;0.40;;;;;;;20.43;30.71;99336.87;1732117;80;20899;-53
2022/05/03 09:39:29;;;;;;;4.33;0.30;;;;;;;20.50;30.09;99330.66;1743492;80;21050;-53
2022/05/03 09:42:15;;;;;;;2.05;0.30;;;;;;;20.55;29.94;99324.77;1735077;80;21623;-53
2022/05/03 09:44:53;;;;;;;0.30;0.30;;;;;;;20.58;29.85;99326.72;1737180;80;21149;-52
2022/05/03 09:47:26;;;;;;;0.93;0.25;;;;;;;20.57;29.50;99314.56;1735732;80;22285;-50
2022/05/03 09:49:52;;;;;;;0.40;0.20;;;;;;;20.55;29.96;99312.47;1727688;80;21133;-52
2022/05/03 09:52:32;;;;;;;0.68;0.30;;;;;;;20.60;29.88;99304.67;1733346;80;21391;-52
2022/05/03 09:55:09;;;;;;;0.40;0.30;;;;;;;20.63;29.18;99300.28;1745841;80;21489;-52
2022/05/03 09:57:38;;;;;;;1.95;0.30;;;;;;;20.70;29.85;99305.52;1740318;80;21717;-52
2022/05/03 10:00:10;;;;;;;0.40;0.33;;;;;;;20.75;29.40;99307.31;1753642;80;21710;-52
2022/05/03 10:02:43;;;;;;;0.40;0.30;;;;;;;20.82;29.58;99295.27;1760822;80;21096;-52
2022/05/03 10:05:11;;;;;;;0.98;0.30;;;;;;;20.92;28.88;99306.53;1760850;80;20974;-51
2022/05/03 10:07:38;;;;;;;1.37;0.40;;;;;;;21.00;28.48;99297.06;1763002;80;21504;-53
2022/05/03 10:10:08;;;;;;;1.27;0.30;;;;;;;21.08;28.21;99294.94;1764083;80;21282;-51
2022/05/03 10:12:36;;;;;;;0.60;0.40;;;;;;;21.16;28.10;99292.30;1764085;80;21368;-51
2022/05/03 10:15:05;;;;;;;0.78;0.42;;;;;;;21.19;28.68;99287.04;1762385;80;20964;-48
2022/05/03 10:20:46;;;;;;;0.70;0.30;;;;;;;21.27;29.10;99273.45;1763556;80;20868;-52
2022/05/03 10:23:23;;;;;;;0.50;0.35;;;;;;;21.28;28.41;99273.80;1762845;80;21054;-52
2022/05/03 10:26:06;;;;;;;0.37;0.30;;;;;;;21.25;28.13;99273.62;1764062;80;20986;-51
2022/05/03 10:29:09;;;;;;;2.53;0.40;;;;;;;21.18;28.52;99276.59;1760555;80;21002;-52
2022/05/03 10:32:03;;;;;;;0.60;0.30;;;;;;;21.08;28.87;99268.43;1758852;80;21073;-52
2022/05/03 10:35:03;;;;;;;0.30;0.30;;;;;;;20.96;29.13;99268.27;1759674;80;21065;-49
2022/05/03 10:37:36;;;;;;;0.62;0.30;;;;;;;20.85;29.53;99271.69;1760842;80;21821;-49
2022/05/03 10:40:12;;;;;;;6.15;0.68;;;;;;;20.77;29.78;99260.13;1753276;80;21030;-53
2022/05/03 10:42:39;;;;;;;1.07;0.30;;;;;;;20.75;30.03;99253.47;1763185;80;21340;-51
2022/05/03 10:45:11;;;;;;;0.40;0.40;;;;;;;20.75;29.47;99253.98;1760259;80;21105;-53
2022/05/03 10:47:53;;;;;;;2.10;0.35;;;;;;;20.77;28.85;99242.36;1762708;80;21511;-51
2022/05/03 10:50:30;;;;;;;2.80;0.33;;;;;;;20.78;28.97;99253.16;1760811;80;21198;-53
2022/05/03 10:53:05;;;;;;;0.85;0.40;;;;;;;20.86;29.29;99235.12;1764038;80;21089;-48
2022/05/03 10:55:37;;;;;;;0.37;0.30;;;;;;;20.99;28.93;99236.51;1761742;80;21093;-53
2022/05/03 10:58:26;;;;;;;0.50;0.37;;;;;;;21.15;28.94;99241.31;1762210;80;20934;-52
2022/05/03 11:01:20;;;;;;;1.37;0.40;;;;;;;21.31;28.44;99240.16;1760943;80;21410;-56
2022/05/03 11:03:51;;;;;;;;;;;;;;;21.43;27.77;99212.06;1767372;80;21056;-50
2022/05/03 11:06:24;;;;;;;2.55;0.40;;;;;;;21.55;27.59;99228.59;1762620;80;20446;-55
2022/05/03 11:11:44;;;;;;;0.50;0.20;;;;;;;21.48;27.13;99223.39;1761329;80;21052;-55
2022/05/03 11:14:24;;;;;;;0.33;0.25;;;;;;;21.39;26.67;99216.97;1760514;80;21305;-51
2022/05/03 11:17:06;;;;;;;0.35;0.30;;;;;;;21.34;26.79;99207.52;1757233;80;21467;-50
2022/05/03 11:19:37;;;;;;;2.37;0.30;;;;;;;21.34;27.13;99206.15;1759938;80;21010;-50
2022/05/03 11:22:13;;;;;;;0.40;0.40;;;;;;;21.32;27.11;99200.82;1764647;80;21449;-55
2022/05/03 11:24:45;;;;;;;1.95;0.40;;;;;;;21.32;26.19;99195.85;1760036;80;21033;-53
2022/05/03 11:27:13;;;;;;;2.02;0.37;;;;;;;21.26;26.38;99186.91;1759310;80;21043;-54
2022/05/03 11:29:42;;;;;;;0.60;0.40;;;;;;;21.25;26.87;99185.18;1762802;80;21418;-51
2022/05/03 11:32:09;;;;;;;0.45;0.30;;;;;;;21.29;26.71;99184.70;1759242;80;20971;-52
2022/05/03 11:34:37;;;;;;;1.10;0.25;;;;;;;21.36;26.66;99189.03;1761305;80;21320;-53
2022/05/03 11:37:07;;;;;;;1.12;0.30;;;;;;;21.38;26.90;99193.34;1759906;80;21077;-50
2022/05/03 11:39:36;;;;;;;0.65;0.37;;;;;;;21.40;27.09;99194.06;1758107;80;21062;-54
2022/05/03 11:42:02;;;;;;;1.90;0.37;;;;;;;21.47;27.14;99181.45;1763369;80;21473;-51
2022/05/03 11:44:28;;;;;;;0.40;0.30;;;;;;;21.48;27.13;99177.70;1758327;80;21085;-52
2022/05/03 11:46:54;;;;;;;1.15;0.30;;;;;;;21.53;27.17;99175.34;1762676;80;21043;-54
2022/05/03 11:49:21;;;;;;;1.10;0.30;;;;;;;21.56;27.46;99180.16;1763697;80;21587;-56
2022/05/03 11:57:33;;;;;;;0.50;0.40;;;;;;;21.49;27.26;99167.11;1763481;80;21020;-50
2022/05/03 12:00:00;;;;;;;0.80;0.40;;;;;;;21.43;27.33;99170.48;1757542;80;21032;-52
2022/05/03 12:02:38;;;;;;;0.47;0.30;;;;;;;21.36;27.27;99170.73;1742886;80;21035;-52
2022/05/03 12:05:17;;;;;;;0.60;0.40;;;;;;;21.34;27.33;99166.45;1751563;80;21137;-56
2022/05/03 12:07:53;;;;;;;0.88;0.30;;;;;;;21.32;27.55;99161.13;1745259;80;21139;-55
2022/05/03 12:10:35;;;;;;;1.17;0.40;;;;;;;21.27;27.55;99161.22;1748946;80;21023;-50
2022/05/03 12:13:13;;;;;;;0.78;0.30;;;;;;;21.25;27.23;99149.09;1747525;80;21228;-53
2022/05/03 12:15:48;;;;;;;0.93;0.20;;;;;;;21.22;27.66;99159.47;1749177;80;21047;-53
2022/05/03 12:18:30;;;;;;;2.90;0.40;;;;;;;21.22;27.27;99160.34;1750557;80;21564;-52
2022/05/03 12:21:00;;;;;;;1.10;0.40;;;;;;;21.17;27.58;99145.38;1747402;80;21733;-51
2022/05/03 12:23:36;;;;;;;1.65;0.30;;;;;;;21.11;27.23;99149.07;1754118;80;21027;-51
2022/05/03 12:26:27;;;;;;;0.50;0.40;;;;;;;21.06;27.55;99147.32;1750810;80;21493;-51
2022/05/03 12:28:59;;;;;;;0.30;0.20;;;;;;;21.00;27.99;99147.95;1746256;80;21474;-52
2022/05/03 12:31:35;;;;;;;1.10;0.30;;;;;;;20.91;28.16;99145.27;1754578;80;21028;-52
2022/05/03 12:33:59;;;;;;;0.45;0.40;;;;;;;20.85;28.27;99142.63;1748206;80;21801;-51
2022/05/03 12:36:44;;;;;;;0.62;0.40;;;;;;;20.81;28.08;99142.59;1753579;80;21785;-51